sensor_id;sensor_type;location;lat;lon;timestamp;P1;durP1;ratioP1;P2;durP2;ratioP2
20232;SDS011;37438;55.674;13.074;2023-04-23T21:27:00;23.38;;;14.52;;
20232;SDS011;37438;55.674;13.074;2023-04-23T21:30:07;20.77;;;14.43;;
20232;SDS011;37438;55.674;13.074;2023-04-23T21:33:20;22.90;;;14.90;;
20232;SDS011;37438;55.674;13.074;2023-04-23T21:36:25;22.58;;;15.00;;
20232;SDS011;37438;55.674;13.074;2023-04-23T21:39:31;24.73;;;14.82;;
20232;SDS011;37438;55.674;13.074;2023-04-23T21:42:36;21.77;;;15.30;;
20232;SDS011;37438;55.674;13.074;2023-04-23T21:45:40;21.80;;;16.40;;
20232;SDS011;37438;55.674;13.074;2023-04-23T21:48:47;24.15;;;16.67;;
20232;SDS011;37438;55.674;13.074;2023-04-23T21:51:52;21.38;;;17.45;;
20232;SDS011;37438;55.674;13.074;2023-04-23T21:54:57;23.73;;;16.08;;
20232;SDS011;37438;55.674;13.074;2023-04-23T21:58:01;15.18;;;11.77;;
20232;SDS011;37438;55.674;13.074;2023-04-23T22:01:20;22.45;;;16.98;;
20232;SDS011;37438;55.674;13.074;2023-04-23T22:04:25;27.40;;;18.10;;
20232;SDS011;37438;55.674;13.074;2023-04-23T22:07:30;27.92;;;18.17;;
20232;SDS011;37438;55.674;13.074;2023-04-23T22:10:35;24.92;;;18.63;;
20232;SDS011;37438;55.674;13.074;2023-04-23T22:13:45;26.48;;;18.17;;
20232;SDS011;37438;55.674;13.074;2023-04-23T22:16:49;22.65;;;15.18;;
20232;SDS011;37438;55.674;13.074;2023-04-23T22:19:54;28.08;;;19.80;;
20232;SDS011;37438;55.674;13.074;2023-04-23T22:22:58;29.58;;;19.88;;
20232;SDS011;37438;55.674;13.074;2023-04-23T22:26:03;29.43;;;20.47;;
20232;SDS011;37438;55.674;13.074;2023-04-23T22:29:07;33.25;;;22.00;;
20232;SDS011;37438;55.674;13.074;2023-04-23T22:32:12;30.27;;;19.90;;
20232;SDS011;37438;55.674;13.074;2023-04-23T22:35:16;32.97;;;21.67;;
20232;SDS011;37438;55.674;13.074;2023-04-23T22:38:20;31.73;;;21.85;;
20232;SDS011;37438;55.674;13.074;2023-04-23T22:41:25;34.33;;;22.90;;
20232;SDS011;37438;55.674;13.074;2023-04-23T22:44:29;30.30;;;21.93;;
20232;SDS011;37438;55.674;13.074;2023-04-23T22:47:34;28.40;;;21.03;;
20232;SDS011;37438;55.674;13.074;2023-04-23T22:50:39;24.73;;;18.02;;
20232;SDS011;37438;55.674;13.074;2023-04-23T22:53:45;29.13;;;19.63;;
20232;SDS011;37438;55.674;13.074;2023-04-23T22:56:50;24.73;;;17.08;;
20232;SDS011;37438;55.674;13.074;2023-04-23T22:59:54;18.83;;;13.73;;
20232;SDS011;37438;55.674;13.074;2023-04-23T23:02:59;27.42;;;19.60;;
20232;SDS011;37438;55.674;13.074;2023-04-23T23:06:03;28.42;;;19.40;;
20232;SDS011;37438;55.674;13.074;2023-04-23T23:09:08;36.55;;;20.98;;
20232;SDS011;37438;55.674;13.074;2023-04-23T23:12:13;31.58;;;21.05;;
20232;SDS011;37438;55.674;13.074;2023-04-23T23:15:17;31.52;;;21.02;;
20232;SDS011;37438;55.674;13.074;2023-04-23T23:18:22;34.47;;;22.10;;
20232;SDS011;37438;55.674;13.074;2023-04-23T23:21:26;34.13;;;21.63;;
20232;SDS011;37438;55.674;13.074;2023-04-23T23:24:31;30.80;;;20.63;;
20232;SDS011;37438;55.674;13.074;2023-04-23T23:30:40;30.48;;;19.95;;
20232;SDS011;37438;55.674;13.074;2023-04-23T23:33:45;30.80;;;20.05;;
20232;SDS011;37438;55.674;13.074;2023-04-23T23:36:49;30.33;;;20.83;;
20232;SDS011;37438;55.674;13.074;2023-04-23T23:39:54;39.50;;;24.67;;
20232;SDS011;37438;55.674;13.074;2023-04-23T23:42:59;30.23;;;22.23;;
20232;SDS011;37438;55.674;13.074;2023-04-23T23:46:03;25.92;;;17.20;;
20232;SDS011;37438;55.674;13.074;2023-04-23T23:49:08;31.42;;;22.02;;
20232;SDS011;37438;55.674;13.074;2023-04-23T23:52:12;36.23;;;22.90;;
20232;SDS011;37438;55.674;13.074;2023-04-23T23:55:17;42.70;;;24.75;;
20232;SDS011;37438;55.674;13.074;2023-04-23T23:58:21;30.38;;;19.42;;
